createdAt,value
2018-06-21T00:00:12.243Z,100860.91
2018-06-21T00:02:40.605Z,100857.55
2018-06-21T00:05:08.957Z,100859.52
2018-06-21T00:07:37.322Z,100855.48
2018-06-21T00:10:06.442Z,100852.83
2018-06-21T00:12:34.804Z,100849.81
2018-06-21T00:15:03.206Z,100844.50
2018-06-21T00:17:31.605Z,100845.16
2018-06-21T00:19:59.961Z,100842.16
2018-06-21T00:22:29.388Z,100838.52
2018-06-21T00:24:57.737Z,100836.53
2018-06-21T00:27:26.102Z,100828.89
2018-06-21T00:29:54.470Z,100828.22
2018-06-21T00:32:22.830Z,100827.55
2018-06-21T00:34:51.204Z,100820.27
2018-06-21T00:37:19.570Z,100814.79
2018-06-21T00:39:47.924Z,100813.94
2018-06-21T00:42:16.277Z,100810.62
2018-06-21T00:44:44.671Z,100808.59
2018-06-21T00:47:13.033Z,100804.80
2018-06-21T00:49:41.397Z,100809.59
2018-06-21T00:52:10.198Z,100803.12
2018-06-21T00:54:38.549Z,100795.31
2018-06-21T00:57:07.925Z,100799.28
2018-06-21T00:59:37.162Z,100795.80
2018-06-21T01:02:05.543Z,100797.69
2018-06-21T01:04:33.883Z,100798.36
2018-06-21T01:07:02.247Z,100797.03
2018-06-21T01:09:30.665Z,100794.39
2018-06-21T01:11:59.018Z,100793.06
2018-06-21T01:14:27.384Z,100788.27
2018-06-21T01:16:55.924Z,100782.65
2018-06-21T01:19:24.386Z,100777.46
2018-06-21T01:21:52.793Z,100778.11
2018-06-21T01:24:23.080Z,100776.13
2018-06-21T01:26:52.380Z,100769.98
2018-06-21T01:29:21.722Z,100767.16
2018-06-21T01:31:50.085Z,100762.87
2018-06-21T01:34:19.318Z,100760.88
2018-06-21T01:36:47.671Z,100761.02
2018-06-21T01:39:16.027Z,100756.38
2018-06-21T01:41:44.391Z,100755.58
2018-06-21T01:44:12.757Z,100752.41
2018-06-21T01:46:41.114Z,100747.59
2018-06-21T01:49:10.466Z,100746.55
2018-06-21T01:51:39.498Z,100739.61
2018-06-21T01:54:08.690Z,100737.75
2018-06-21T01:56:38.148Z,100735.08
2018-06-21T01:59:06.575Z,100731.09
2018-06-21T02:01:34.927Z,100731.23
2018-06-21T02:04:03.300Z,100731.05
2018-06-21T02:06:32.671Z,100725.63
2018-06-21T02:09:02.043Z,100719.31
2018-06-21T02:11:31.501Z,100721.64
2018-06-21T02:14:00.827Z,100717.30
2018-06-21T02:16:30.119Z,100714.30
2018-06-21T02:18:59.393Z,100715.98
2018-06-21T02:21:28.679Z,100712.33
2018-06-21T02:23:57.885Z,100707.71
2018-06-21T02:26:27.291Z,100704.28
2018-06-21T02:28:56.531Z,100701.84
2018-06-21T02:31:24.895Z,100700.35
2018-06-21T02:33:53.287Z,100695.53
2018-06-21T02:36:22.640Z,100692.55
2018-06-21T02:38:51.923Z,100692.02
2018-06-21T02:41:21.315Z,100693.88
2018-06-21T02:43:50.763Z,100698.81
2018-06-21T02:46:20.204Z,100695.98
2018-06-21T02:48:49.512Z,100696.53
2018-06-21T02:51:18.903Z,100693.42
2018-06-21T02:53:48.194Z,100689.25
2018-06-21T02:56:17.464Z,100684.92
2018-06-21T02:58:46.834Z,100686.56
2018-06-21T03:01:16.092Z,100683.41
2018-06-21T03:03:45.363Z,100679.45
2018-06-21T03:06:14.698Z,100673.63
2018-06-21T03:08:43.974Z,100673.61
2018-06-21T03:11:13.221Z,100670.45
2018-06-21T03:13:42.492Z,100674.61
2018-06-21T03:16:10.895Z,100670.68
2018-06-21T03:18:40.175Z,100658.58
2018-06-21T03:21:08.559Z,100665.19
2018-06-21T03:23:36.951Z,100664.13
2018-06-21T03:26:05.416Z,100658.31
2018-06-21T03:28:34.738Z,100658.88
2018-06-21T03:31:04.104Z,100657.54
2018-06-21T03:33:32.502Z,100652.89
2018-06-21T03:36:00.860Z,100647.61
2018-06-21T03:38:29.222Z,100649.55
2018-06-21T03:40:57.574Z,100640.63
2018-06-21T03:43:25.922Z,100644.23
2018-06-21T03:45:54.294Z,100642.61
2018-06-21T03:48:22.684Z,100636.32
2018-06-21T03:50:51.038Z,100634.70
2018-06-21T03:53:20.415Z,100643.31
2018-06-21T03:55:48.842Z,100641.39
2018-06-21T03:58:18.199Z,100634.47
2018-06-21T04:00:46.564Z,100635.03
2018-06-21T04:03:14.939Z,100635.25
2018-06-21T04:05:43.334Z,100638.78
2018-06-21T04:08:12.690Z,100636.13
2018-06-21T04:10:41.159Z,100634.67
2018-06-21T04:13:10.447Z,100625.76
2018-06-21T04:15:38.813Z,100630.22
2018-06-21T04:18:07.216Z,100622.77
2018-06-21T04:20:35.881Z,100616.84
2018-06-21T04:23:04.242Z,100612.69
2018-06-21T04:25:33.392Z,100616.83
2018-06-21T04:28:02.837Z,100615.85
2018-06-21T04:30:31.203Z,100617.83
2018-06-21T04:32:59.545Z,100610.22
2018-06-21T04:35:28.772Z,100610.56
2018-06-21T04:37:57.167Z,100609.39
2018-06-21T04:40:25.529Z,100615.17
2018-06-21T04:42:54.973Z,100612.88
2018-06-21T04:45:24.349Z,100612.03
2018-06-21T04:47:52.712Z,100614.53
2018-06-21T04:50:21.071Z,100609.21
2018-06-21T04:52:49.462Z,100601.59
2018-06-21T04:55:17.889Z,100598.73
2018-06-21T04:57:47.125Z,100593.94
2018-06-21T05:00:15.518Z,100589.59
2018-06-21T05:02:43.885Z,100589.08
2018-06-21T05:05:12.274Z,100585.20
2018-06-21T05:07:40.667Z,100579.77
2018-06-21T05:10:10.021Z,100578.94
2018-06-21T05:12:39.402Z,100567.51
2018-06-21T05:15:07.803Z,100567.77
2018-06-21T05:17:36.210Z,100558.77
2018-06-21T05:20:04.646Z,100563.69
2018-06-21T05:22:33.018Z,100559.61
2018-06-21T05:25:01.393Z,100557.34
2018-06-21T05:27:30.718Z,100554.23
2018-06-21T05:29:59.962Z,100551.59
2018-06-21T05:32:28.318Z,100546.86
2018-06-21T05:34:57.452Z,100541.82
2018-06-21T05:37:26.290Z,100541.35
2018-06-21T05:39:55.707Z,100539.94
2018-06-21T05:42:24.118Z,100536.25
2018-06-21T05:44:53.344Z,100535.95
2018-06-21T05:47:21.726Z,100535.20
2018-06-21T05:49:51.024Z,100535.33
2018-06-21T05:52:19.371Z,100530.15
2018-06-21T05:54:48.677Z,100528.59
2018-06-21T05:57:17.092Z,100529.76
2018-06-21T05:59:45.518Z,100524.80
2018-06-21T06:02:13.881Z,100511.37
2018-06-21T06:04:43.309Z,100508.06
2018-06-21T06:07:11.678Z,100505.14
2018-06-21T06:09:41.077Z,100507.37
2018-06-21T06:12:09.483Z,100501.92
2018-06-21T06:14:38.739Z,100501.28
2018-06-21T06:17:07.140Z,100491.36
2018-06-21T06:19:35.555Z,100494.73
2018-06-21T06:22:04.978Z,100486.52
2018-06-21T06:24:33.387Z,100482.03
2018-06-21T06:27:03.247Z,100481.09
2018-06-21T06:29:31.679Z,100478.46
2018-06-21T06:32:01.011Z,100481.21
2018-06-21T06:34:29.445Z,100481.01
2018-06-21T06:36:58.831Z,100480.70
2018-06-21T06:39:27.199Z,100475.78
2018-06-21T06:41:56.594Z,100468.56
2018-06-21T06:44:25.766Z,100468.28
2018-06-21T06:46:55.242Z,100459.23
2018-06-21T06:49:24.587Z,100463.44
2018-06-21T06:51:52.950Z,100462.09
2018-06-21T06:54:22.266Z,100459.30
2018-06-21T06:56:50.648Z,100452.06
2018-06-21T06:59:19.017Z,100437.69
2018-06-21T07:01:47.372Z,100445.91
2018-06-21T07:04:15.785Z,100436.98
2018-06-21T07:06:44.219Z,100437.56
2018-06-21T07:09:12.588Z,100430.20
2018-06-21T07:11:40.971Z,100422.67
2018-06-21T07:14:09.396Z,100411.00
2018-06-21T07:16:37.753Z,100408.04
2018-06-21T07:19:06.511Z,100403.44
2018-06-21T07:21:37.966Z,100403.83
2018-06-21T07:24:06.526Z,100390.78
2018-06-21T07:26:34.962Z,100394.14
2018-06-21T07:29:03.318Z,100382.56
2018-06-21T07:31:31.667Z,100376.00
2018-06-21T07:34:00.041Z,100371.98
2018-06-21T07:36:28.477Z,100363.77
2018-06-21T07:38:56.956Z,100368.61
2018-06-21T07:41:25.430Z,100353.52
2018-06-21T07:43:53.797Z,100359.14
2018-06-21T07:46:22.179Z,100353.59
2018-06-21T07:48:51.577Z,100346.94
2018-06-21T07:51:19.933Z,100341.80
2018-06-21T07:53:48.366Z,100343.31
2018-06-21T07:56:16.719Z,100332.45
2018-06-21T07:58:45.064Z,100328.56
2018-06-21T08:01:13.444Z,100323.51
2018-06-21T08:03:41.800Z,100307.52
2018-06-21T08:06:10.155Z,100304.57
2018-06-21T08:08:38.521Z,100305.48
2018-06-21T08:11:06.902Z,100305.91
2018-06-21T08:13:35.266Z,100291.61
2018-06-21T08:16:04.134Z,100288.80
2018-06-21T08:18:33.429Z,100281.04
2018-06-21T08:21:02.695Z,100281.11
2018-06-21T08:23:31.966Z,100272.07
2018-06-21T08:26:00.325Z,100277.47
2018-06-21T08:28:28.685Z,100275.49
2018-06-21T08:30:57.103Z,100272.97
2018-06-21T08:33:25.489Z,100262.36
2018-06-21T08:35:53.879Z,100253.55
2018-06-21T08:38:22.311Z,100259.37
2018-06-21T08:40:50.675Z,100257.53
2018-06-21T08:43:19.053Z,100247.56
2018-06-21T08:45:47.457Z,100244.33
2018-06-21T08:48:15.802Z,100236.69
2018-06-21T08:50:44.155Z,100224.22
2018-06-21T08:53:12.511Z,100221.81
2018-06-21T08:55:40.892Z,100218.67
2018-06-21T08:58:09.251Z,100220.99
2018-06-21T09:00:37.626Z,100213.23
2018-06-21T09:03:05.985Z,100209.52
2018-06-21T09:05:35.269Z,100205.67
2018-06-21T09:08:04.538Z,100200.19
2018-06-21T09:10:33.907Z,100198.17
2018-06-21T09:13:03.100Z,100187.55
2018-06-21T09:15:32.407Z,100189.41
2018-06-21T09:18:00.761Z,100177.84
2018-06-21T09:20:30.011Z,100166.42
2018-06-21T09:22:59.171Z,100162.34
2018-06-21T09:25:28.521Z,100159.75
2018-06-21T09:27:57.747Z,100151.30
2018-06-21T09:30:26.094Z,100150.02
2018-06-21T09:32:54.456Z,100146.09
2018-06-21T09:35:23.868Z,100141.36
2018-06-21T09:38:59.197Z,100143.23
2018-06-21T09:41:33.042Z,100134.48
2018-06-21T09:44:06.681Z,100130.83
2018-06-21T09:46:40.353Z,100117.29
2018-06-21T09:49:09.734Z,100127.98
2018-06-21T09:51:38.129Z,100121.20
2018-06-21T09:54:06.494Z,100124.21
2018-06-21T09:56:34.841Z,100127.30
2018-06-21T09:59:03.260Z,100132.08
2018-06-21T10:01:31.599Z,100140.42
2018-06-21T10:03:59.947Z,100132.25
2018-06-21T10:06:29.212Z,100122.02
2018-06-21T10:08:57.636Z,100124.00
2018-06-21T10:11:26.989Z,100110.77
2018-06-21T10:13:55.355Z,100113.03
2018-06-21T10:16:24.538Z,100114.00
2018-06-21T10:18:52.895Z,100115.58
2018-06-21T10:21:22.145Z,100102.14
2018-06-21T10:23:50.502Z,100106.34
2018-06-21T10:26:18.852Z,100094.11
2018-06-21T10:28:47.200Z,100087.47
2018-06-21T10:31:15.856Z,100081.45
2018-06-21T10:33:46.931Z,100085.06
2018-06-21T10:36:16.303Z,100082.56
2018-06-21T10:38:44.677Z,100077.59
2018-06-21T10:41:13.083Z,100091.91
2018-06-21T10:43:41.439Z,100070.80
2018-06-21T10:46:09.843Z,100075.97
2018-06-21T10:48:38.247Z,100068.41
2018-06-21T10:51:07.550Z,100068.38
2018-06-21T10:53:35.915Z,100067.18
2018-06-21T10:56:04.297Z,100059.81
2018-06-21T10:58:33.249Z,100080.34
2018-06-21T11:01:01.860Z,100074.98
2018-06-21T11:03:30.216Z,100060.85
2018-06-21T11:05:58.617Z,100069.28
2018-06-21T11:08:26.993Z,100083.89
2018-06-21T11:10:55.377Z,100152.53
2018-06-21T11:13:24.645Z,100225.25
2018-06-21T11:15:53.972Z,100251.48
2018-06-21T11:18:23.185Z,100273.58
2018-06-21T11:20:52.484Z,100269.55
2018-06-21T11:23:20.872Z,100285.05
2018-06-21T11:25:49.235Z,100316.40
2018-06-21T11:28:17.613Z,100334.08
2018-06-21T11:30:46.043Z,100338.23
2018-06-21T11:33:15.296Z,100338.70
2018-06-21T11:35:44.754Z,100336.23
2018-06-21T11:38:14.218Z,100329.61
2018-06-21T11:40:43.497Z,100339.55
2018-06-21T11:43:12.954Z,100367.65
2018-06-21T11:45:42.235Z,100375.75
2018-06-21T11:48:11.550Z,100392.45
2018-06-21T11:50:40.937Z,100399.84
2018-06-21T11:53:09.376Z,100413.55
2018-06-21T11:55:37.788Z,100422.42
2018-06-21T11:58:06.162Z,100445.87
2018-06-21T12:00:35.432Z,100449.74
2018-06-21T12:03:04.817Z,100470.56
2018-06-21T12:05:34.083Z,100456.01
2018-06-21T12:08:03.362Z,100465.91
2018-06-21T12:10:32.788Z,100462.55
2018-06-21T12:13:02.065Z,100474.45
2018-06-21T12:15:31.501Z,100475.38
2018-06-21T12:17:59.869Z,100473.09
2018-06-21T12:20:28.221Z,100483.68
2018-06-21T12:22:56.584Z,100477.87
2018-06-21T12:25:26.441Z,100493.83
2018-06-21T12:27:55.771Z,100492.59
2018-06-21T12:30:25.034Z,100502.98
2018-06-21T12:32:54.424Z,100489.48
2018-06-21T12:35:23.718Z,100505.89
2018-06-21T12:37:53.079Z,100521.09
2018-06-21T12:40:22.439Z,100534.06
2018-06-21T12:42:51.635Z,100552.92
2018-06-21T12:45:20.933Z,100571.95
2018-06-21T12:47:50.349Z,100568.60
2018-06-21T12:50:19.604Z,100584.36
2018-06-21T12:52:48.909Z,100582.63
2018-06-21T12:55:17.278Z,100587.52
2018-06-21T12:57:45.640Z,100602.60
2018-06-21T13:00:14.011Z,100611.02
2018-06-21T13:02:42.375Z,100601.77
2018-06-21T13:05:10.764Z,100636.09
2018-06-21T13:07:39.157Z,100657.73
2018-06-21T13:10:18.768Z,100655.90
2018-06-21T13:13:03.847Z,100640.03
2018-06-21T13:15:32.265Z,100628.45
2018-06-21T13:18:01.641Z,100629.25
2018-06-21T13:20:30.907Z,100628.45
2018-06-21T13:22:59.255Z,100628.95
2018-06-21T13:25:28.631Z,100624.52
2018-06-21T13:27:57.908Z,100624.73
2018-06-21T13:30:27.153Z,100622.56
2018-06-21T13:32:55.509Z,100650.87
2018-06-21T13:35:24.787Z,100666.67
2018-06-21T13:37:53.251Z,100682.07
2018-06-21T13:40:21.617Z,100658.38
2018-06-21T13:42:50.894Z,100634.14
2018-06-21T13:45:20.250Z,100622.76
2018-06-21T13:47:48.615Z,100620.80
2018-06-21T13:50:17.869Z,100626.52
2018-06-21T13:52:46.234Z,100629.59
2018-06-21T13:55:14.607Z,100632.34
2018-06-21T13:57:43.914Z,100633.67
2018-06-21T14:00:12.271Z,100648.08
2018-06-21T14:02:40.683Z,100638.59
2018-06-21T14:05:09.062Z,100639.63
2018-06-21T14:07:38.457Z,100646.51
2018-06-21T14:10:07.668Z,100654.44
2018-06-21T14:12:36.932Z,100656.92
2018-06-21T14:15:06.156Z,100677.47
2018-06-21T14:17:35.546Z,100683.36
2018-06-21T14:20:03.969Z,100679.71
2018-06-21T14:22:32.330Z,100690.33
2018-06-21T14:25:00.704Z,100702.13
2018-06-21T14:27:29.070Z,100683.76
2018-06-21T14:29:57.483Z,100692.56
2018-06-21T14:32:26.820Z,100694.22
2018-06-21T14:34:55.169Z,100702.31
2018-06-21T14:37:23.551Z,100698.13
2018-06-21T14:39:52.928Z,100702.75
2018-06-21T14:42:22.166Z,100703.62
2018-06-21T14:44:50.537Z,100722.22
2018-06-21T14:47:19.783Z,100724.02
2018-06-21T14:49:48.163Z,100731.38
2018-06-21T14:52:17.630Z,100754.81
2018-06-21T14:54:46.012Z,100730.38
2018-06-21T14:57:15.456Z,100729.91
2018-06-21T14:59:43.918Z,100727.11
2018-06-21T15:02:13.195Z,100734.08
2018-06-21T15:04:41.569Z,100726.78
2018-06-21T15:07:09.963Z,100733.38
2018-06-21T15:09:39.358Z,100730.95
2018-06-21T15:12:07.712Z,100738.38
2018-06-21T15:14:37.140Z,100748.34
2018-06-21T15:17:05.519Z,100750.00
2018-06-21T15:19:34.919Z,100734.61
2018-06-21T15:22:03.315Z,100723.94
2018-06-21T15:24:31.698Z,100726.91
2018-06-21T15:27:00.975Z,100728.66
2018-06-21T15:29:30.233Z,100717.07
2018-06-21T15:31:59.433Z,100728.62
2018-06-21T15:34:28.697Z,100726.98
2018-06-21T15:36:57.081Z,100710.25
2018-06-21T15:39:25.591Z,100710.31
2018-06-21T15:41:54.007Z,100708.90
2018-06-21T15:44:23.362Z,100711.85
2018-06-21T15:46:52.773Z,100700.34
2018-06-21T15:49:22.012Z,100705.00
2018-06-21T15:51:50.413Z,100706.52
2018-06-21T15:54:19.788Z,100690.94
2018-06-21T15:56:48.189Z,100696.83
2018-06-21T15:59:16.925Z,100696.05
2018-06-21T16:01:45.297Z,100694.85
2018-06-21T16:04:13.679Z,100705.85
2018-06-21T16:06:42.067Z,100712.52
2018-06-21T16:09:11.089Z,100700.66
2018-06-21T16:11:39.985Z,100722.80
2018-06-21T16:14:08.374Z,100719.00
2018-06-21T16:16:36.834Z,100723.29
2018-06-21T16:19:05.323Z,100735.63
2018-06-21T16:21:33.731Z,100734.73
2018-06-21T16:24:02.187Z,100737.38
2018-06-21T16:26:30.563Z,100739.89
2018-06-21T16:28:59.111Z,100738.66
2018-06-21T16:31:27.465Z,100744.16
2018-06-21T16:33:56.737Z,100741.81
2018-06-21T16:36:25.156Z,100734.91
2018-06-21T16:38:53.522Z,100762.03
2018-06-21T16:41:21.886Z,100752.30
2018-06-21T16:43:50.304Z,100751.64
2018-06-21T16:46:18.715Z,100755.79
2018-06-21T16:48:47.453Z,100752.37
2018-06-21T16:51:16.873Z,100753.15
2018-06-21T16:53:45.244Z,100761.95
2018-06-21T16:56:13.641Z,100769.04
2018-06-21T16:58:42.056Z,100780.80
2018-06-21T17:01:10.490Z,100780.27
2018-06-21T17:03:38.874Z,100781.83
2018-06-21T17:06:07.256Z,100777.47
2018-06-21T17:08:36.664Z,100786.34
2018-06-21T17:11:05.144Z,100767.22
2018-06-21T17:13:33.697Z,100772.05
2018-06-21T17:16:02.179Z,100777.12
2018-06-21T17:18:30.606Z,100769.84
2018-06-21T17:20:58.971Z,100786.85
2018-06-21T17:23:27.353Z,100780.00
2018-06-21T17:25:55.714Z,100790.48
2018-06-21T17:28:24.096Z,100784.09
2018-06-21T17:30:52.467Z,100798.23
2018-06-21T17:33:20.848Z,100803.52
2018-06-21T17:35:49.223Z,100808.92
2018-06-21T17:38:18.646Z,100812.09
2018-06-21T17:40:47.057Z,100817.96
2018-06-21T17:43:15.564Z,100821.13
2018-06-21T17:45:44.031Z,100814.38
2018-06-21T17:48:12.533Z,100826.59
2018-06-21T17:50:42.119Z,100824.73
2018-06-21T17:53:11.692Z,100837.12
2018-06-21T17:55:41.038Z,100834.28
2018-06-21T17:58:10.402Z,100836.73
2018-06-21T18:00:38.769Z,100838.48
2018-06-21T18:03:07.137Z,100841.33
2018-06-21T18:05:35.519Z,100843.61
2018-06-21T18:08:04.325Z,100847.53
2018-06-21T18:10:32.657Z,100855.28
2018-06-21T18:13:01.039Z,100847.64
2018-06-21T18:15:29.444Z,100853.64
2018-06-21T18:17:58.713Z,100859.61
2018-06-21T18:20:27.110Z,100860.92
2018-06-21T18:22:55.495Z,100860.75
2018-06-21T18:25:24.770Z,100862.48
2018-06-21T18:27:54.263Z,100871.90
2018-06-21T18:30:23.670Z,100876.66
2018-06-21T18:32:52.043Z,100875.84
2018-06-21T18:35:21.494Z,100880.44
2018-06-21T18:37:50.983Z,100891.18
2018-06-21T18:40:19.363Z,100902.44
2018-06-21T18:42:47.722Z,100903.06
2018-06-21T18:45:17.132Z,100906.80
2018-06-21T18:47:45.524Z,100900.91
2018-06-21T18:50:13.997Z,100908.74
2018-06-21T18:52:43.600Z,100917.61
2018-06-21T18:55:12.010Z,100917.34
2018-06-21T18:57:40.452Z,100922.12
2018-06-21T19:00:10.102Z,100925.45
2018-06-21T19:02:39.995Z,100924.55
2018-06-21T19:05:08.470Z,100929.05
2018-06-21T19:07:40.693Z,100933.50
2018-06-21T19:10:14.446Z,100935.97
2018-06-21T19:12:42.822Z,100936.78
2018-06-21T19:15:11.222Z,100949.28
2018-06-21T19:17:39.696Z,100946.95
2018-06-21T19:20:08.066Z,100953.78
2018-06-21T19:22:36.607Z,100950.23
2018-06-21T19:25:04.986Z,100952.61
2018-06-21T19:27:34.310Z,100953.98
2018-06-21T19:30:02.760Z,100957.31
2018-06-21T19:32:31.967Z,100971.34
2018-06-21T19:35:01.238Z,100962.83
2018-06-21T19:37:29.675Z,100977.55
2018-06-21T19:39:59.083Z,100975.54
2018-06-21T19:42:27.475Z,100987.13
2018-06-21T19:44:55.844Z,100985.20
2018-06-21T19:47:24.211Z,100995.89
2018-06-21T19:49:52.570Z,100990.58
2018-06-21T19:52:20.950Z,100997.16
2018-06-21T19:54:49.331Z,100999.36
2018-06-21T19:57:17.718Z,101005.02
2018-06-21T19:59:46.135Z,101015.06
2018-06-21T20:02:14.512Z,101010.20
2018-06-21T20:04:42.898Z,101008.09
2018-06-21T20:07:12.261Z,101006.16
2018-06-21T20:09:41.523Z,101010.72
2018-06-21T20:12:09.895Z,101014.70
2018-06-21T20:14:38.266Z,101014.47
2018-06-21T20:17:06.644Z,101016.53
2018-06-21T20:19:40.378Z,101021.69
2018-06-21T20:22:08.745Z,101024.66
2018-06-21T20:24:37.091Z,101026.57
2018-06-21T20:27:06.469Z,101033.87
2018-06-21T20:29:34.857Z,101033.51
2018-06-21T20:32:03.231Z,101032.19
2018-06-21T20:34:31.637Z,101031.48
2018-06-21T20:37:00.235Z,101043.43
2018-06-21T20:39:28.681Z,101039.86
2018-06-21T20:41:57.117Z,101035.55
2018-06-21T20:44:25.486Z,101035.20
2018-06-21T20:46:53.906Z,101040.69
2018-06-21T20:49:22.466Z,101042.97
2018-06-21T20:51:50.837Z,101051.44
2018-06-21T20:54:19.784Z,101054.19
2018-06-21T20:56:49.416Z,101051.11
2018-06-21T20:59:17.888Z,101051.91
2018-06-21T21:01:46.441Z,101051.33
2018-06-21T21:04:15.418Z,101049.86
2018-06-21T21:06:43.882Z,101053.34
2018-06-21T21:09:13.876Z,101057.25
2018-06-21T21:11:43.173Z,101065.80
2018-06-21T21:14:12.442Z,101067.10
2018-06-21T21:16:41.981Z,101070.41
2018-06-21T21:19:10.313Z,101068.88
2018-06-21T21:21:38.707Z,101067.70
2018-06-21T21:24:07.117Z,101068.76
2018-06-21T21:26:35.554Z,101075.23
2018-06-21T21:29:04.916Z,101067.23
2018-06-21T21:31:34.369Z,101059.73
2018-06-21T21:34:04.866Z,101062.30
2018-06-21T21:36:34.312Z,101067.16
2018-06-21T21:39:03.964Z,101063.61
2018-06-21T21:41:33.405Z,101059.30
2018-06-21T21:44:02.828Z,101058.95
2018-06-21T21:46:32.253Z,101057.73
2018-06-21T21:49:00.689Z,101069.75
2018-06-21T21:51:29.135Z,101066.63
2018-06-21T21:53:57.532Z,101069.89
2018-06-21T21:56:27.371Z,101066.63
2018-06-21T21:58:55.800Z,101068.02
2018-06-21T22:01:25.109Z,101066.75
2018-06-21T22:03:53.496Z,101065.83
2018-06-21T22:06:21.947Z,101071.28
2018-06-21T22:08:50.348Z,101073.38
2018-06-21T22:11:18.768Z,101073.13
2018-06-21T22:13:47.268Z,101067.55
2018-06-21T22:16:16.653Z,101072.06
2018-06-21T22:18:45.101Z,101069.45
2018-06-21T22:21:13.555Z,101067.37
2018-06-21T22:23:41.951Z,101069.73
2018-06-21T22:26:16.915Z,101066.66
2018-06-21T22:28:45.330Z,101061.20
2018-06-21T22:31:15.878Z,101060.36
2018-06-21T22:33:44.285Z,101060.95
2018-06-21T22:36:12.786Z,101062.14
2018-06-21T22:38:41.194Z,101064.52
2018-06-21T22:41:10.562Z,101055.94
2018-06-21T22:43:39.316Z,101058.93
2018-06-21T22:46:08.157Z,101056.23
2018-06-21T22:48:37.081Z,101056.02
2018-06-21T22:51:05.509Z,101049.67
2018-06-21T22:53:33.946Z,101050.43
2018-06-21T22:56:02.317Z,101048.74
2018-06-21T22:58:30.771Z,101052.16
2018-06-21T23:00:59.246Z,101047.59
2018-06-21T23:03:27.681Z,101049.10
2018-06-21T23:05:57.162Z,101050.74
2018-06-21T23:08:25.615Z,101049.70
2018-06-21T23:10:54.076Z,101047.46
2018-06-21T23:13:22.476Z,101047.53
2018-06-21T23:15:50.902Z,101048.66
2018-06-21T23:18:30.646Z,101049.70
2018-06-21T23:20:59.083Z,101045.64
2018-06-21T23:23:28.403Z,101045.84
2018-06-21T23:25:56.770Z,101044.52
2018-06-21T23:28:25.163Z,101046.67
2018-06-21T23:30:54.568Z,101039.48
2018-06-21T23:33:24.909Z,101038.23
2018-06-21T23:35:54.369Z,101041.17
2018-06-21T23:38:23.845Z,101040.45
2018-06-21T23:40:52.359Z,101036.47
2018-06-21T23:43:21.629Z,101037.19
2018-06-21T23:45:51.104Z,101036.84
2018-06-21T23:48:19.559Z,101033.77
2018-06-21T23:50:49.764Z,101039.92
2018-06-21T23:53:19.197Z,101045.08
2018-06-21T23:55:48.460Z,101045.80
2018-06-21T23:58:16.848Z,101043.96
